createdAt,value
2023-03-20T00:01:35.453Z,101785.09
2023-03-20T00:04:10.414Z,101784.25
2023-03-20T00:06:42.459Z,101777.28
2023-03-20T00:09:14.981Z,101779.06
2023-03-20T00:11:59.006Z,101782.56
2023-03-20T00:14:31.551Z,101779.94
2023-03-20T00:17:11.519Z,101774.69
2023-03-20T00:19:47.005Z,101780.84
2023-03-20T00:22:18.994Z,101784.28
2023-03-20T00:24:51.117Z,101783.44
2023-03-20T00:27:29.133Z,101790.41
2023-03-20T00:30:01.165Z,101781.66
2023-03-20T00:32:33.195Z,101781.63
2023-03-20T00:35:24.358Z,101778.16
2023-03-20T00:38:00.439Z,101775.59
2023-03-20T00:40:35.880Z,101777.34
2023-03-20T00:43:10.765Z,101779.97
2023-03-20T00:45:45.595Z,101773.84
2023-03-20T00:48:40.134Z,101783.41
2023-03-20T00:51:12.204Z,101784.28
2023-03-20T00:53:44.383Z,101791.19
2023-03-20T00:56:41.074Z,101783.38
2023-03-20T01:00:05.292Z,101794.69
2023-03-20T01:02:37.659Z,101791.22
2023-03-20T01:05:10.971Z,101794.69
2023-03-20T01:07:43.098Z,101789.41
2023-03-20T01:10:15.570Z,101790.31
2023-03-20T01:12:48.125Z,101789.38
2023-03-20T01:15:24.020Z,101795.53
2023-03-20T01:17:56.140Z,101794.63
2023-03-20T01:20:30.989Z,101794.69
2023-03-20T01:23:03.030Z,101800.66
2023-03-20T01:25:35.517Z,101799.72
2023-03-20T01:28:34.226Z,101799.69
2023-03-20T01:31:06.573Z,101809.31
2023-03-20T01:33:40.288Z,101809.34
2023-03-20T01:36:15.128Z,101812.91
2023-03-20T01:38:54.417Z,101818.16
2023-03-20T01:41:27.737Z,101820.72
2023-03-20T01:44:16.343Z,101816.28
2023-03-20T01:46:48.946Z,101822.31
2023-03-20T01:49:23.519Z,101823.91
2023-03-20T01:51:57.209Z,101817.78
2023-03-20T01:54:34.884Z,101816.88
2023-03-20T01:57:22.971Z,101823.91
2023-03-20T02:00:03.667Z,101824.81
2023-03-20T02:02:36.330Z,101822.22
2023-03-20T02:05:11.896Z,101817.88
2023-03-20T02:07:51.548Z,101825.66
2023-03-20T02:10:23.910Z,101822.94
2023-03-20T02:12:59.174Z,101818.63
2023-03-20T02:15:31.903Z,101821.09
2023-03-20T02:18:04.123Z,101821.94
2023-03-20T02:20:54.223Z,101820.09
2023-03-20T02:24:03.676Z,101812.22
2023-03-20T02:27:15.523Z,101813.19
2023-03-20T02:30:08.701Z,101815.69
2023-03-20T02:33:28.171Z,101823.50
2023-03-20T02:36:26.599Z,101818.25
2023-03-20T02:39:16.365Z,101816.50
2023-03-20T02:42:07.429Z,101817.34
2023-03-20T02:45:17.460Z,101811.28
2023-03-20T02:48:19.579Z,101810.41
2023-03-20T02:52:10.169Z,101802.63
2023-03-20T02:55:07.226Z,101805.25
2023-03-20T02:58:24.509Z,101800.84
2023-03-20T03:01:09.647Z,101786.88
2023-03-20T03:03:51.974Z,101790.41
2023-03-20T03:06:37.198Z,101783.47
2023-03-20T03:09:18.770Z,101780.91
2023-03-20T03:12:07.741Z,101780.09
2023-03-20T03:14:47.289Z,101777.47
2023-03-20T03:17:24.232Z,101766.94
2023-03-20T03:20:06.132Z,101766.09
2023-03-20T03:22:44.018Z,101773.97
2023-03-20T03:25:16.180Z,101761.81
2023-03-20T03:28:04.321Z,101760.09
2023-03-20T03:31:11.275Z,101748.75
2023-03-20T03:33:47.600Z,101752.22
2023-03-20T03:36:41.565Z,101740.84
2023-03-20T03:39:38.096Z,101746.06
2023-03-20T03:42:41.491Z,101745.97
2023-03-20T03:45:31.752Z,101743.34
2023-03-20T03:48:12.863Z,101742.44
2023-03-20T03:50:53.462Z,101738.06
2023-03-20T03:53:40.350Z,101739.88
2023-03-20T03:56:16.559Z,101739.84
2023-03-20T03:58:53.808Z,101743.34
2023-03-20T04:01:31.666Z,101737.25
2023-03-20T04:04:08.060Z,101746.88
2023-03-20T04:06:43.137Z,101746.03
2023-03-20T04:09:20.938Z,101745.16
2023-03-20T04:11:54.097Z,101755.56
2023-03-20T04:14:26.434Z,101745.09
2023-03-20T04:16:58.629Z,101751.19
2023-03-20T04:19:30.756Z,101752.03
2023-03-20T04:22:02.923Z,101753.81
2023-03-20T04:24:58.560Z,101758.00
2023-03-20T04:27:30.889Z,101751.91
2023-03-20T04:30:05.763Z,101744.16
2023-03-20T04:32:38.196Z,101753.56
2023-03-20T04:35:10.564Z,101751.72
2023-03-20T04:37:42.570Z,101743.88
2023-03-20T04:40:15.085Z,101739.63
2023-03-20T04:42:47.170Z,101738.56
2023-03-20T04:45:19.349Z,101732.28
2023-03-20T04:47:52.560Z,101737.59
2023-03-20T04:50:24.675Z,101733.38
2023-03-20T04:52:57.004Z,101721.97
2023-03-20T04:55:29.187Z,101731.69
2023-03-20T04:58:01.229Z,101734.41
2023-03-20T05:00:33.952Z,101733.53
2023-03-20T05:03:07.373Z,101731.66
2023-03-20T05:05:39.571Z,101736.06
2023-03-20T05:08:11.708Z,101742.16
2023-03-20T05:10:45.606Z,101744.69
2023-03-20T05:13:21.218Z,101744.81
2023-03-20T05:16:13.947Z,101747.38
2023-03-20T05:18:46.404Z,101749.91
2023-03-20T05:21:18.659Z,101757.63
2023-03-20T05:23:50.923Z,101756.00
2023-03-20T05:26:22.986Z,101757.78
2023-03-20T05:28:55.042Z,101750.63
2023-03-20T05:31:27.102Z,101745.59
2023-03-20T05:34:01.822Z,101754.34
2023-03-20T05:36:33.904Z,101750.81
2023-03-20T05:39:34.992Z,101757.66
2023-03-20T05:42:10.023Z,101758.47
2023-03-20T05:44:42.676Z,101760.34
2023-03-20T05:47:14.990Z,101767.38
2023-03-20T05:49:47.041Z,101761.31
2023-03-20T05:52:19.151Z,101765.72
2023-03-20T05:54:51.502Z,101765.69
2023-03-20T05:57:23.604Z,101773.34
2023-03-20T05:59:58.690Z,101767.41
2023-03-20T06:02:30.752Z,101778.78
2023-03-20T06:05:04.462Z,101780.56
2023-03-20T06:07:36.519Z,101777.78
2023-03-20T06:10:10.117Z,101775.19
2023-03-20T06:12:42.164Z,101771.75
2023-03-20T06:15:15.124Z,101774.41
2023-03-20T06:17:47.248Z,101782.28
2023-03-20T06:20:19.402Z,101779.69
2023-03-20T06:22:51.973Z,101790.22
2023-03-20T06:25:24.004Z,101789.25
2023-03-20T06:27:56.189Z,101781.19
2023-03-20T06:30:29.512Z,101784.00
2023-03-20T06:33:01.694Z,101784.81
2023-03-20T06:35:34.530Z,101783.13
2023-03-20T06:38:17.445Z,101785.81
2023-03-20T06:40:52.155Z,101784.16
2023-03-20T06:43:24.187Z,101789.38
2023-03-20T06:45:56.222Z,101788.38
2023-03-20T06:48:28.516Z,101785.81
2023-03-20T06:51:00.660Z,101801.47
2023-03-20T06:53:35.830Z,101799.88
2023-03-20T06:56:10.272Z,101807.81
2023-03-20T06:58:52.405Z,101807.72
2023-03-20T07:01:28.326Z,101804.41
2023-03-20T07:04:01.330Z,101804.47
2023-03-20T07:06:34.129Z,101800.97
2023-03-20T07:09:07.872Z,101801.88
2023-03-20T07:14:26.578Z,101806.66
2023-03-20T07:17:01.543Z,101811.84
2023-03-20T07:19:34.562Z,101815.22
2023-03-20T07:22:18.522Z,101805.78
2023-03-20T07:24:50.821Z,101803.19
2023-03-20T07:27:23.375Z,101811.88
2023-03-20T07:29:56.995Z,101810.97
2023-03-20T07:32:29.002Z,101816.16
2023-03-20T07:35:01.801Z,101821.56
2023-03-20T07:37:33.804Z,101819.97
2023-03-20T07:40:07.069Z,101826.00
2023-03-20T07:42:44.976Z,101824.41
2023-03-20T07:45:19.699Z,101833.00
2023-03-20T07:47:51.873Z,101826.06
2023-03-20T07:50:25.536Z,101822.22
2023-03-20T07:52:57.708Z,101825.06
2023-03-20T07:55:29.757Z,101833.91
2023-03-20T07:58:01.842Z,101826.88
2023-03-20T08:00:50.961Z,101832.94
2023-03-20T08:03:23.132Z,101826.09
2023-03-20T08:05:55.635Z,101832.13
2023-03-20T08:08:27.924Z,101829.50
2023-03-20T08:11:00.183Z,101825.28
2023-03-20T08:13:32.896Z,101830.63
2023-03-20T08:16:06.158Z,101829.84
2023-03-20T08:18:42.803Z,101827.28
2023-03-20T08:21:14.874Z,101824.84
2023-03-20T08:23:46.989Z,101829.34
2023-03-20T08:26:20.579Z,101836.38
2023-03-20T08:28:52.817Z,101835.59
2023-03-20T08:31:26.019Z,101841.81
2023-03-20T08:33:58.224Z,101847.72
2023-03-20T08:36:30.416Z,101855.66
2023-03-20T08:39:02.426Z,101854.63
2023-03-20T08:41:39.011Z,101851.28
2023-03-20T08:44:11.894Z,101853.84
2023-03-20T08:46:44.966Z,101854.25
2023-03-20T08:49:17.291Z,101855.16
2023-03-20T08:51:49.546Z,101847.41
2023-03-20T08:54:21.645Z,101851.91
2023-03-20T08:56:54.977Z,101847.81
2023-03-20T08:59:27.074Z,101854.88
2023-03-20T09:01:59.292Z,101841.72
2023-03-20T09:04:31.466Z,101847.06
2023-03-20T09:07:03.686Z,101844.50
2023-03-20T09:09:36.281Z,101850.75
2023-03-20T09:23:49.779Z,101844.59
2023-03-20T09:58:30.000Z,101844.06
2023-03-20T10:13:37.473Z,101857.16
2023-03-20T10:16:49.263Z,101842.28
2023-03-20T10:19:34.714Z,101834.38
2023-03-20T10:22:14.684Z,101835.09
2023-03-20T10:25:07.931Z,101831.66
2023-03-20T10:28:00.836Z,101834.91
2023-03-20T10:30:46.690Z,101837.53
2023-03-20T10:34:09.420Z,101841.25
2023-03-20T10:37:09.323Z,101839.41
2023-03-20T10:40:23.569Z,101831.56
2023-03-20T10:43:36.040Z,101835.88
2023-03-20T10:46:29.297Z,101826.34
2023-03-20T10:49:51.678Z,101834.38
2023-03-20T10:52:29.826Z,101835.34
2023-03-20T10:55:13.573Z,101826.66
2023-03-20T10:57:55.292Z,101817.91
2023-03-20T11:00:28.718Z,101808.25
2023-03-20T11:03:02.524Z,101806.69
2023-03-20T11:05:58.624Z,101804.13
2023-03-20T11:08:42.800Z,101808.56
2023-03-20T11:11:28.308Z,101810.25
2023-03-20T11:14:38.038Z,101814.66
2023-03-20T11:17:13.808Z,101804.22
2023-03-20T11:19:45.872Z,101803.31
2023-03-20T11:22:26.696Z,101792.75
2023-03-20T11:25:03.458Z,101796.34
2023-03-20T11:30:30.022Z,101791.94
2023-03-20T11:33:03.625Z,101792.84
2023-03-20T11:35:36.302Z,101794.59
2023-03-20T11:38:18.432Z,101785.81
2023-03-20T11:40:54.975Z,101784.09
2023-03-20T11:43:28.808Z,101784.97
2023-03-20T11:46:04.510Z,101781.47
2023-03-20T11:48:41.477Z,101781.47
2023-03-20T11:51:22.925Z,101781.44
2023-03-20T11:54:06.364Z,101777.06
2023-03-20T11:56:38.969Z,101784.03
2023-03-20T11:59:11.981Z,101780.56
2023-03-20T12:01:51.564Z,101777.84
2023-03-20T12:04:42.138Z,101776.13
2023-03-20T12:07:42.927Z,101783.06
2023-03-20T12:10:15.982Z,101779.53
2023-03-20T12:12:55.031Z,101776.72
2023-03-20T12:15:47.681Z,101773.31
2023-03-20T12:18:39.203Z,101782.94
2023-03-20T12:21:28.768Z,101789.28
2023-03-20T12:24:25.695Z,101774.44
2023-03-20T12:27:17.873Z,101775.31
2023-03-20T12:30:12.852Z,101769.19
2023-03-20T12:33:16.053Z,101771.84
2023-03-20T12:35:52.368Z,101785.84
2023-03-20T12:39:25.529Z,101780.59
2023-03-20T12:42:07.426Z,101772.72
2023-03-20T12:45:32.907Z,101774.41
2023-03-20T12:48:53.867Z,101774.38
2023-03-20T12:51:41.180Z,101771.75
2023-03-20T12:54:20.316Z,101759.47
2023-03-20T12:57:10.487Z,101761.28
2023-03-20T12:59:57.603Z,101757.78
2023-03-20T13:03:04.810Z,101753.41
2023-03-20T13:06:36.820Z,101753.44
2023-03-20T13:09:20.953Z,101753.44
2023-03-20T13:12:01.893Z,101748.19
2023-03-20T13:15:35.534Z,101744.72
2023-03-20T13:19:02.171Z,101743.78
2023-03-20T13:21:46.835Z,101742.88
2023-03-20T13:24:30.853Z,101741.16
2023-03-20T13:30:49.927Z,101735.06
2023-03-20T13:33:43.620Z,101734.16
2023-03-20T13:36:44.060Z,101741.06
2023-03-20T13:39:37.941Z,101742.88
2023-03-20T13:42:22.958Z,101738.50
2023-03-20T13:46:21.392Z,101734.16
2023-03-20T13:48:59.234Z,101728.06
2023-03-20T13:51:40.224Z,101730.69
2023-03-20T13:54:58.976Z,101736.81
2023-03-20T13:58:26.176Z,101731.56
2023-03-20T14:01:38.722Z,101720.22
2023-03-20T14:04:19.283Z,101724.56
2023-03-20T14:07:50.140Z,101718.47
2023-03-20T14:11:25.034Z,101721.94
2023-03-20T14:14:20.125Z,101721.91
2023-03-20T14:17:26.651Z,101724.53
2023-03-20T14:21:05.526Z,101738.53
2023-03-20T14:23:44.905Z,101716.69
2023-03-20T14:26:57.551Z,101732.41
2023-03-20T14:29:29.647Z,101731.53
2023-03-20T14:32:16.936Z,101724.44
2023-03-20T14:35:26.982Z,101726.22
2023-03-20T14:38:42.980Z,101722.72
2023-03-20T14:42:07.850Z,101719.22
2023-03-20T14:45:13.790Z,101726.16
2023-03-20T14:48:17.195Z,101736.63
2023-03-20T14:51:39.665Z,101722.53
2023-03-20T14:54:41.754Z,101723.47
2023-03-20T14:57:35.747Z,101719.81
2023-03-20T15:00:24.004Z,101720.59
2023-03-20T15:03:16.563Z,101716.44
2023-03-20T15:05:58.626Z,101725.09
2023-03-20T15:08:36.537Z,101726.69
2023-03-20T15:11:12.617Z,101724.13
2023-03-20T15:13:46.663Z,101721.47
2023-03-20T15:16:31.275Z,101720.66
2023-03-20T15:19:15.618Z,101721.72
2023-03-20T15:21:48.813Z,101727.81
2023-03-20T15:24:27.799Z,101722.44
2023-03-20T15:27:03.132Z,101706.66
2023-03-20T15:29:35.348Z,101711.13
2023-03-20T15:32:14.820Z,101714.75
2023-03-20T15:34:49.512Z,101721.69
2023-03-20T15:37:25.116Z,101721.47
2023-03-20T15:39:59.280Z,101715.34
2023-03-20T15:42:32.886Z,101717.84
2023-03-20T15:45:23.774Z,101716.91
2023-03-20T15:48:17.786Z,101719.53
2023-03-20T15:50:57.490Z,101720.47
2023-03-20T15:53:40.538Z,101714.47
2023-03-20T15:56:19.210Z,101720.59
2023-03-20T15:58:52.682Z,101709.22
2023-03-20T16:01:26.525Z,101714.44
2023-03-20T16:04:00.111Z,101714.34
2023-03-20T16:07:01.721Z,101709.91
2023-03-20T16:09:44.331Z,101718.56
2023-03-20T16:12:33.823Z,101719.53
2023-03-20T16:15:06.860Z,101718.59
2023-03-20T16:17:39.042Z,101725.56
2023-03-20T16:20:16.951Z,101714.09
2023-03-20T16:22:50.387Z,101717.63
2023-03-20T16:25:22.532Z,101708.97
2023-03-20T16:27:55.530Z,101711.44
2023-03-20T16:30:33.325Z,101707.94
2023-03-20T16:33:17.050Z,101720.97
2023-03-20T16:35:50.950Z,101718.28
2023-03-20T16:38:34.110Z,101720.94
2023-03-20T16:41:28.179Z,101714.06
2023-03-20T16:44:08.231Z,101709.72
2023-03-20T16:47:24.514Z,101707.94
2023-03-20T16:50:12.791Z,101710.56
2023-03-20T16:52:57.921Z,101710.50
2023-03-20T16:55:43.622Z,101707.91
2023-03-20T16:58:21.108Z,101715.56
2023-03-20T17:01:09.529Z,101714.53
2023-03-20T17:03:52.694Z,101719.59
2023-03-20T17:06:37.001Z,101711.78
2023-03-20T17:09:33.511Z,101727.50
2023-03-20T17:12:25.953Z,101723.84
2023-03-20T17:14:58.060Z,101721.28
2023-03-20T17:17:30.339Z,101722.94
2023-03-20T17:20:02.582Z,101734.13
2023-03-20T17:22:36.341Z,101724.59
2023-03-20T17:25:09.288Z,101730.81
2023-03-20T17:27:41.547Z,101731.75
2023-03-20T17:30:24.055Z,101739.59
2023-03-20T17:32:56.650Z,101735.91
2023-03-20T17:35:28.846Z,101740.91
2023-03-20T17:38:00.966Z,101737.22
2023-03-20T17:40:32.945Z,101730.09
2023-03-20T17:43:10.948Z,101725.84
2023-03-20T17:45:44.440Z,101723.03
2023-03-20T17:48:20.943Z,101716.84
2023-03-20T17:50:53.051Z,101722.81
2023-03-20T17:53:28.957Z,101728.19
2023-03-20T17:56:01.684Z,101722.97
2023-03-20T17:58:33.745Z,101727.25
2023-03-20T18:01:07.218Z,101729.78
2023-03-20T18:03:40.045Z,101727.91
2023-03-20T18:06:38.737Z,101729.72
2023-03-20T18:09:19.302Z,101732.41
2023-03-20T18:11:51.332Z,101746.38
2023-03-20T18:14:41.663Z,101743.09
2023-03-20T18:17:15.154Z,101747.44
2023-03-20T18:19:50.226Z,101749.44
2023-03-20T18:22:22.374Z,101746.78
2023-03-20T18:24:54.465Z,101749.25
2023-03-20T18:27:26.709Z,101750.91
2023-03-20T18:30:16.413Z,101751.78
2023-03-20T18:32:49.205Z,101748.28
2023-03-20T18:35:21.632Z,101749.19
2023-03-20T18:37:53.650Z,101748.25
2023-03-20T18:40:31.322Z,101745.72
2023-03-20T18:43:03.752Z,101746.59
2023-03-20T18:45:36.028Z,101750.97
2023-03-20T18:48:12.551Z,101741.34
2023-03-20T18:50:51.674Z,101743.91
2023-03-20T18:53:23.763Z,101738.03
2023-03-20T18:56:28.625Z,101734.63
2023-03-20T18:59:08.920Z,101739.78
2023-03-20T19:01:41.604Z,101737.75
2023-03-20T19:04:16.557Z,101738.75
2023-03-20T19:06:49.488Z,101737.75
2023-03-20T19:09:26.823Z,101730.63
2023-03-20T19:14:48.048Z,101741.03
2023-03-20T19:17:28.992Z,101743.69
2023-03-20T19:20:03.926Z,101733.97
2023-03-20T19:22:44.678Z,101731.38
2023-03-20T19:25:17.458Z,101722.78
2023-03-20T19:27:49.838Z,101725.34
2023-03-20T19:30:40.270Z,101733.09
2023-03-20T19:33:14.923Z,101720.94
2023-03-20T19:36:06.080Z,101721.91
2023-03-20T19:38:43.459Z,101724.44
2023-03-20T19:41:15.629Z,101718.38
2023-03-20T19:43:53.645Z,101726.22
2023-03-20T19:46:44.042Z,101721.97
2023-03-20T19:49:30.072Z,101723.84
2023-03-20T19:52:07.355Z,101715.66
2023-03-20T19:54:50.067Z,101712.03
2023-03-20T19:57:32.278Z,101712.84
2023-03-20T20:01:11.149Z,101710.97
2023-03-20T20:02:59.442Z,101716.84
2023-03-20T20:05:37.375Z,101710.00
2023-03-20T20:10:59.772Z,101706.53
2023-03-20T20:13:43.834Z,101704.91
2023-03-20T20:16:27.166Z,101710.63
2023-03-20T20:25:18.999Z,101702.75
2023-03-20T20:27:51.183Z,101697.50
2023-03-20T20:30:23.570Z,101707.06
2023-03-20T20:33:03.465Z,101695.81
2023-03-20T20:36:57.535Z,101697.53
2023-03-20T20:39:06.153Z,101704.47
2023-03-20T20:41:45.164Z,101697.47
2023-03-20T20:44:17.424Z,101699.28
2023-03-20T20:47:05.903Z,101699.28
2023-03-20T20:49:38.013Z,101699.28
2023-03-20T20:52:26.068Z,101694.09
2023-03-20T20:55:00.983Z,101700.06
2023-03-20T20:57:42.557Z,101694.72
2023-03-20T21:00:16.443Z,101698.09
2023-03-20T21:02:52.163Z,101693.81
2023-03-20T21:05:31.274Z,101694.72
2023-03-20T21:08:03.762Z,101691.16
2023-03-20T21:10:36.118Z,101690.31
2023-03-20T21:16:06.201Z,101690.31
2023-03-20T21:18:38.721Z,101691.19
2023-03-20T21:21:13.795Z,101694.63
2023-03-20T21:23:46.193Z,101688.63
2023-03-20T21:26:18.729Z,101692.97
2023-03-20T21:28:51.568Z,101696.31
2023-03-20T21:31:30.427Z,101689.44
2023-03-20T21:34:05.265Z,101692.19
2023-03-20T21:36:37.500Z,101686.91
2023-03-20T21:39:10.148Z,101685.28
2023-03-20T21:41:42.221Z,101687.13
2023-03-20T21:44:19.763Z,101686.25
2023-03-20T21:50:42.142Z,101683.47
2023-03-20T21:56:40.211Z,101688.69
2023-03-20T21:59:12.811Z,101686.13
2023-03-20T22:01:58.778Z,101686.16
2023-03-20T22:05:16.308Z,101685.47
2023-03-20T22:07:45.014Z,101679.31
2023-03-20T22:10:54.681Z,101680.19
2023-03-20T22:16:36.602Z,101673.47
2023-03-20T22:27:56.509Z,101676.00
2023-03-20T22:42:22.425Z,101680.59
2023-03-20T22:47:24.111Z,101673.59
2023-03-20T22:49:56.237Z,101674.47
2023-03-20T22:52:41.704Z,101675.38
2023-03-20T22:55:20.489Z,101671.94
2023-03-20T22:58:06.473Z,101666.66
2023-03-20T23:00:39.455Z,101671.94
2023-03-20T23:03:22.388Z,101677.00
2023-03-20T23:06:21.164Z,101676.81
2023-03-20T23:09:03.137Z,101666.44
2023-03-20T23:11:40.722Z,101673.47
2023-03-20T23:14:20.746Z,101670.16
2023-03-20T23:16:54.038Z,101666.81
2023-03-20T23:19:26.623Z,101667.75
2023-03-20T23:22:00.943Z,101671.22
2023-03-20T23:24:32.955Z,101666.00
2023-03-20T23:27:05.503Z,101663.41
2023-03-20T23:29:37.459Z,101665.94
2023-03-20T23:32:09.604Z,101664.19
2023-03-20T23:34:41.653Z,101653.81
2023-03-20T23:37:13.888Z,101662.47
2023-03-20T23:39:45.982Z,101658.19
2023-03-20T23:42:29.977Z,101654.75
2023-03-20T23:45:17.145Z,101653.88
2023-03-20T23:47:51.574Z,101663.53
2023-03-20T23:50:31.937Z,101651.34
2023-03-20T23:53:19.619Z,101649.53
2023-03-20T23:55:56.333Z,101646.09
2023-03-20T23:58:28.944Z,101641.81
